首页
METAR-TAF:

METAR-TAF

机场 :

日利納, 斯洛伐克

纬度: 49-14N, 经度: 018-36-49E, 海拔: 312米

当前天气观测

该预报发布于13分钟前的21:00 UTC
风速1节,风向南转南东
温度 10°C
湿度 76%
气压 1004 hPa
能见度10公里或以上
1500米以下无云,无积雨云

METAR: LZZI 032100Z 16001KT CAVOK 10/06 Q1004

时间: 23:13 (21:13 UTC)

预报

该预报发布于1小时和13分钟前的20:00 UTC
预报有效从03日的 21点(UTC)到 04日的 06点(UTC)
风速2节,风向多变
能见度10公里或以上
1500米以下无云,无积雨云
几率 30% :
短暂存在
从 04日的 00点(UTC)到 04日的 04点(UTC)
能見度: 3500
少量云层高于300英尺
碎片雾

TAF: LZZI 032000Z 0321/0406 VRB02KT CAVOK PROB30 TEMPO 0400/0404 3500 BCFG FEW003

超过4000个机场的气象观测和天气预报(METAR&TAF报告)。

可查询的气象台以黄色和红色小点在地图上表示。

将鼠标移到小点上方,可查看气象台名称。

然后点击查看天气观测和预报。

如需切换地图:点击带黑十字的绿色按钮放大地图;点击带横线的绿色按钮缩小地图;或者点击绿色箭头查看邻近地区的地图。


METAR-TAF: